Time;durP1;ratioP1;P1;durP2;ratioP2;P2;SDS_P1;SDS_P2;PMS_P1;PMS_P2;Temp;Humidity;BMP_temperature;BMP_pressure;BME280_temperature;BME280_humidity;BME280_pressure;Samples;Min_cycle;Max_cycle;Signal;HPM_P1;HPM_P2
2022/01/09 00:00:11;;;;;;;67.25;32.42;;;0.80;99.80;;;;;;5078212;28;20028;-80
2022/01/09 00:02:37;;;;;;;64.38;32.17;;;0.90;99.70;;;;;;5077706;28;20028;-80
2022/01/09 00:05:06;;;;;;;61.63;32.25;;;0.80;99.50;;;;;;5078266;28;20065;-81
2022/01/09 00:07:32;;;;;;;69.03;33.67;;;0.90;99.70;;;;;;5078258;28;20111;-80
2022/01/09 00:09:59;;;;;;;77.38;35.97;;;0.90;99.70;;;;;;5078251;28;20055;-80
2022/01/09 00:12:25;;;;;;;81.07;38.90;;;0.80;99.80;;;;;;5059857;28;20020;-80
2022/01/09 00:14:52;;;;;;;93.43;42.35;;;0.90;99.90;;;;;;5078276;28;20035;-81
2022/01/09 00:17:19;;;;;;;81.00;37.35;;;0.80;99.90;;;;;;5078389;28;20047;-80
2022/01/09 00:19:45;;;;;;;91.90;41.97;;;2.70;99.90;;;;;;5078111;28;20012;-80
2022/01/09 00:22:12;;;;;;;78.72;38.70;;;0.70;99.90;;;;;;5071529;28;20193;-80
2022/01/09 00:24:38;;;;;;;77.07;35.10;;;0.60;99.90;;;;;;5076439;28;20417;-80
2022/01/09 00:27:04;;;;;;;66.60;32.38;;;0.60;99.90;;;;;;5092255;28;20149;-80
2022/01/09 00:29:29;;;;;;;58.78;29.65;;;0.60;99.90;;;;;;5092444;28;20016;-80
2022/01/09 00:31:55;;;;;;;60.65;30.40;;;0.40;99.90;;;;;;5065878;28;20054;-79
2022/01/09 00:34:21;;;;;;;63.35;30.90;;;0.60;99.90;;;;;;5083662;28;20109;-79
2022/01/09 00:36:49;;;;;;;61.83;32.15;;;0.50;99.90;;;;;;5063534;28;20032;-80
2022/01/09 00:39:15;;;;;;;58.67;29.65;;;0.30;99.90;;;;;;5063759;28;20024;-80
2022/01/09 00:41:41;;;;;;;68.40;32.70;;;0.50;99.90;;;;;;5081706;28;20097;-80
2022/01/09 00:44:07;;;;;;;63.58;33.72;;;0.50;99.90;;;;;;5081853;28;20028;-80
2022/01/09 00:46:35;;;;;;;66.57;32.72;;;0.40;99.90;;;;;;5081537;28;20031;-80
2022/01/09 00:49:03;;;;;;;69.75;32.83;;;0.50;99.90;;;;;;5081481;28;20489;-80
2022/01/09 00:51:29;;;;;;;73.88;33.67;;;0.50;99.90;;;;;;5081948;28;20017;-80
2022/01/09 00:53:54;;;;;;;66.30;32.22;;;0.40;99.90;;;;;;5081451;28;20513;-80
2022/01/09 00:56:20;;;;;;;85.05;37.72;;;0.40;99.90;;;;;;5081306;28;20367;-80
2022/01/09 00:58:46;;;;;;;76.93;37.70;;;0.20;99.90;;;;;;5081308;28;20044;-80
2022/01/09 01:01:12;;;;;;;72.03;35.00;;;0.30;99.90;;;;;;5081451;28;20020;-80
2022/01/09 01:03:38;;;;;;;74.55;35.30;;;-0.80;99.90;;;;;;5081038;28;20035;-80
2022/01/09 01:06:04;;;;;;;80.80;37.17;;;0.40;99.90;;;;;;5081251;28;20310;-81
2022/01/09 01:08:30;;;;;;;72.45;36.83;;;0.40;99.90;;;;;;5080859;28;20020;-80
2022/01/09 01:10:55;;;;;;;72.65;35.08;;;0.40;99.90;;;;;;5081115;28;20190;-80
2022/01/09 01:13:22;;;;;;;73.57;35.13;;;0.40;99.90;;;;;;5080749;28;20065;-81
2022/01/09 01:15:48;;;;;;;75.53;35.55;;;0.50;99.90;;;;;;5080753;28;20024;-80
2022/01/09 01:18:14;;;;;;;76.20;36.35;;;0.50;99.90;;;;;;5081428;28;20021;-80
2022/01/09 01:20:41;;;;;;;77.35;35.95;;;3.50;99.90;;;;;;5080891;28;20073;-80
2022/01/09 01:23:07;;;;;;;81.65;36.42;;;0.60;99.90;;;;;;5080719;28;20024;-80
2022/01/09 01:25:35;;;;;;;84.00;37.67;;;0.60;99.90;;;;;;5080739;28;20312;-80
2022/01/09 01:28:01;;;;;;;77.15;37.05;;;0.70;99.90;;;;;;5080643;28;20032;-81
2022/01/09 01:30:26;;;;;;;78.75;34.95;;;0.70;99.90;;;;;;5080355;28;20020;-80
2022/01/09 01:32:52;;;;;;;70.13;33.35;;;0.70;99.90;;;;;;5080447;28;20020;-80
2022/01/09 01:35:18;;;;;;;79.97;34.67;;;0.70;99.90;;;;;;5080413;28;20031;-80
2022/01/09 01:37:44;;;;;;;71.43;31.92;;;0.70;99.90;;;;;;5061352;28;20467;-81
2022/01/09 01:40:13;;;;;;;70.63;34.20;;;0.80;99.90;;;;;;5080480;28;20232;-80
2022/01/09 01:42:39;;;;;;;65.93;34.28;;;0.80;99.90;;;;;;5080465;28;20028;-80
2022/01/09 01:45:10;;;;;;;66.47;32.97;;;0.80;99.60;;;;;;5062145;28;20039;-80
2022/01/09 01:47:36;;;;;;;73.47;34.03;;;0.80;99.70;;;;;;5062048;28;20202;-80
2022/01/09 01:50:08;;;;;;;64.85;33.50;;;0.80;99.90;;;;;;5079956;28;20301;-80
2022/01/09 01:52:39;;;;;;;76.35;36.53;;;0.80;99.90;;;;;;5080296;28;20297;-80
2022/01/09 01:55:08;;;;;;;74.05;36.20;;;1.70;99.90;;;;;;5060935;28;20036;-80
2022/01/09 01:57:34;;;;;;;69.88;34.78;;;0.80;99.90;;;;;;5061568;28;20044;-80
2022/01/09 02:00:00;;;;;;;70.05;34.95;;;0.80;99.80;;;;;;5080270;28;20078;-80
2022/01/09 02:02:27;;;;;;;78.10;35.70;;;0.80;99.70;;;;;;5061203;28;20060;-80
2022/01/09 02:04:54;;;;;;;73.55;36.60;;;0.80;99.50;;;;;;5079888;28;20035;-80
2022/01/09 02:07:21;;;;;;;72.32;35.88;;;3.20;99.90;;;;;;5061717;28;20158;-80
2022/01/09 02:09:48;;;;;;;72.18;35.65;;;0.90;99.90;;;;;;5079804;28;20032;-80
2022/01/09 02:12:13;;;;;;;64.55;34.40;;;0.90;99.90;;;;;;5061015;28;20028;-81
2022/01/09 02:14:44;;;;;;;77.88;35.92;;;1.00;99.70;;;;;;5061056;28;20037;-80
2022/01/09 02:17:09;;;;;;;73.32;35.55;;;1.00;99.70;;;;;;5061573;28;20032;-80
2022/01/09 02:19:35;;;;;;;71.82;36.95;;;1.00;99.60;;;;;;5061517;28;20391;-80
2022/01/09 02:22:01;;;;;;;71.13;34.33;;;1.00;99.70;;;;;;5061708;28;20496;-81
2022/01/09 02:24:27;;;;;;;76.00;36.90;;;1.00;99.60;;;;;;5079417;28;20024;-79
2022/01/09 02:26:53;;;;;;;71.22;35.45;;;1.10;99.50;;;;;;5060906;28;20051;-80
2022/01/09 02:29:18;;;;;;;75.53;35.10;;;1.00;99.30;;;;;;5079934;28;20552;-80
2022/01/09 02:31:45;;;;;;;69.70;34.45;;;1.10;99.40;;;;;;5079622;28;20016;-81
2022/01/09 02:34:11;;;;;;;73.38;37.00;;;1.10;99.40;;;;;;5079170;28;20142;-80
2022/01/09 02:36:39;;;;;;;77.07;37.75;;;1.10;99.30;;;;;;5079580;28;20313;-80
2022/01/09 02:39:05;;;;;;;68.95;34.60;;;1.10;99.20;;;;;;5061204;28;20034;-80
2022/01/09 02:41:31;;;;;;;68.50;33.95;;;1.10;99.00;;;;;;5078895;28;20020;-80
2022/01/09 02:43:57;;;;;;;64.55;34.85;;;1.50;99.20;;;;;;5078266;28;20028;-80
2022/01/09 02:48:51;;;;;;;62.50;32.00;;;0.90;99.60;;;;;;5078943;28;20525;-80
2022/01/09 02:51:18;;;;;;;58.90;30.02;;;0.90;99.50;;;;;;5079165;28;20692;-80
2022/01/09 02:53:47;;;;;;;55.75;29.58;;;0.80;99.20;;;;;;5060155;28;20047;-81
2022/01/09 02:56:15;;;;;;;68.43;31.60;;;0.80;99.20;;;;;;5078860;28;20510;-80
2022/01/09 02:58:44;;;;;;;66.65;31.10;;;0.70;99.50;;;;;;5059822;28;20075;-79
2022/01/09 03:01:13;;;;;;;67.43;32.30;;;1.30;99.90;;;;;;5078816;28;20093;-80
2022/01/09 03:03:39;;;;;;;64.75;31.77;;;0.70;99.90;;;;;;5059578;28;20039;-80
2022/01/09 03:06:08;;;;;;;57.85;30.05;;;2.40;99.90;;;;;;5078929;28;20224;-80
2022/01/09 03:08:34;;;;;;;67.68;34.33;;;0.70;99.90;;;;;;5060861;28;20035;-79
2022/01/09 03:10:59;;;;;;;74.97;35.90;;;0.60;99.90;;;;;;5078567;28;20039;-80
2022/01/09 03:13:25;;;;;;;74.55;35.35;;;0.60;99.90;;;;;;5078681;28;20033;-80
2022/01/09 03:15:51;;;;;;;70.07;34.97;;;0.60;99.90;;;;;;5087182;28;20445;-80
2022/01/09 03:18:16;;;;;;;73.72;34.45;;;0.60;99.90;;;;;;5087226;28;20056;-80
2022/01/09 03:20:45;;;;;;;68.22;32.65;;;0.60;99.90;;;;;;5087762;28;20118;-80
2022/01/09 03:23:10;;;;;;;64.40;32.03;;;0.60;99.90;;;;;;5085372;28;20518;-81
2022/01/09 03:25:36;;;;;;;63.92;31.48;;;0.60;99.90;;;;;;5061601;28;20033;-79
2022/01/09 03:28:05;;;;;;;67.18;32.13;;;0.60;99.90;;;;;;5079781;28;20472;-80
2022/01/09 03:30:30;;;;;;;62.40;31.58;;;0.60;99.80;;;;;;5079579;28;20017;-79
2022/01/09 03:32:59;;;;;;;63.80;30.67;;;0.60;99.90;;;;;;5078654;28;20428;-80
2022/01/09 03:35:26;;;;;;;59.72;31.27;;;0.60;99.90;;;;;;5078719;28;20285;-80
2022/01/09 03:37:53;;;;;;;58.55;30.02;;;0.60;99.90;;;;;;5060467;28;20494;-80
2022/01/09 03:40:24;;;;;;;56.25;28.13;;;0.70;99.90;;;;;;5078338;28;20498;-80
2022/01/09 03:42:51;;;;;;;63.03;31.83;;;0.60;99.20;;;;;;5078459;28;20069;-80
2022/01/09 03:45:18;;;;;;;62.85;30.25;;;0.50;99.50;;;;;;5078642;28;20359;-80
2022/01/09 03:47:44;;;;;;;65.78;31.95;;;0.60;99.70;;;;;;5059814;28;20105;-81
2022/01/09 03:50:11;;;;;;;61.00;29.90;;;0.60;99.60;;;;;;5078223;28;20498;-80
2022/01/09 03:52:43;;;;;;;63.58;29.42;;;0.70;99.50;;;;;;5078341;28;20047;-80
2022/01/09 03:55:12;;;;;;;64.68;31.83;;;0.60;99.30;;;;;;5077853;28;20324;-80
2022/01/09 03:57:39;;;;;;;64.68;30.65;;;0.70;99.40;;;;;;5078494;28;20032;-79
2022/01/09 04:00:07;;;;;;;57.10;27.92;;;0.60;99.70;;;;;;5078219;28;20012;-79
2022/01/09 04:02:36;;;;;;;60.50;29.40;;;0.70;99.50;;;;;;5077723;28;20302;-79
2022/01/09 04:05:02;;;;;;;60.83;29.48;;;0.70;99.50;;;;;;5078042;28;20028;-80
2022/01/09 04:07:28;;;;;;;58.30;28.88;;;1.40;99.50;;;;;;5059560;28;20024;-80
2022/01/09 04:09:54;;;;;;;67.53;30.67;;;0.80;99.30;;;;;;5059577;28;20026;-80
2022/01/09 04:12:31;;;;;;;56.95;29.92;;;0.90;99.20;;;;;;5078100;28;20016;-80
2022/01/09 04:14:57;;;;;;;67.10;32.10;;;0.80;99.50;;;;;;5059824;28;20080;-80
2022/01/09 04:17:35;;;;;;;65.20;32.28;;;0.80;99.70;;;;;;5077797;28;20284;-80
2022/01/09 04:20:01;;;;;;;64.55;32.10;;;0.90;99.80;;;;;;5077766;28;20016;-80
2022/01/09 04:22:26;;;;;;;62.35;30.88;;;0.90;99.60;;;;;;5077867;28;20055;-80
2022/01/09 04:24:54;;;;;;;64.18;31.52;;;0.90;99.30;;;;;;5078087;28;20043;-80
2022/01/09 04:27:20;;;;;;;62.88;32.33;;;0.90;99.60;;;;;;5078534;28;20023;-79
2022/01/09 04:29:46;;;;;;;65.32;32.80;;;0.90;99.90;;;;;;5077979;28;20032;-80
2022/01/09 04:32:12;;;;;;;65.82;32.72;;;0.90;99.60;;;;;;5059736;28;20589;-80
2022/01/09 04:34:37;;;;;;;61.53;32.92;;;0.90;99.80;;;;;;5060198;28;20073;-80
2022/01/09 04:37:03;;;;;;;60.42;31.80;;;0.90;99.90;;;;;;5077782;28;20016;-80
2022/01/09 04:39:29;;;;;;;64.13;32.22;;;1.00;99.50;;;;;;5059850;28;20706;-80
2022/01/09 04:41:56;;;;;;;61.00;31.27;;;2.50;99.70;;;;;;5059396;28;20039;-80
2022/01/09 04:44:22;;;;;;;63.85;32.60;;;1.00;99.20;;;;;;5059829;28;20029;-80
2022/01/09 04:46:55;;;;;;;60.75;30.80;;;1.00;99.30;;;;;;5059838;28;20190;-80
2022/01/09 04:49:24;;;;;;;68.68;33.17;;;1.10;99.20;;;;;;5060136;28;20050;-80
2022/01/09 04:51:51;;;;;;;70.85;34.38;;;1.10;99.20;;;;;;5078159;28;20021;-80
2022/01/09 04:54:16;;;;;;;70.40;31.83;;;1.10;99.10;;;;;;5077734;28;20024;-80
2022/01/09 04:56:42;;;;;;;63.50;32.72;;;1.10;99.20;;;;;;5077919;28;20248;-80
2022/01/09 04:59:08;;;;;;;64.53;32.00;;;1.10;99.10;;;;;;5077947;28;20410;-80
2022/01/09 05:01:34;;;;;;;67.13;32.42;;;1.10;99.30;;;;;;5078154;28;20020;-81
2022/01/09 05:03:59;;;;;;;70.32;33.67;;;1.10;99.20;;;;;;5059963;28;20619;-80
2022/01/09 05:06:28;;;;;;;67.38;33.20;;;1.10;99.30;;;;;;5059982;28;20039;-80
2022/01/09 05:08:54;;;;;;;71.65;34.28;;;1.10;99.20;;;;;;5082027;28;20303;-80
2022/01/09 05:11:19;;;;;;;73.20;34.67;;;1.10;99.40;;;;;;5081278;28;20415;-80
2022/01/09 05:13:47;;;;;;;73.10;34.85;;;1.10;99.40;;;;;;5062790;28;20048;-80
2022/01/09 05:16:13;;;;;;;78.88;36.85;;;1.10;99.40;;;;;;5081589;28;20297;-80
2022/01/09 05:18:51;;;;;;;76.13;36.88;;;1.10;99.60;;;;;;5081274;28;20082;-80
2022/01/09 05:21:17;;;;;;;79.07;37.58;;;1.10;99.70;;;;;;5062727;28;20031;-80
2022/01/09 05:23:44;;;;;;;77.45;36.80;;;1.10;99.90;;;;;;5081402;28;20088;-80
2022/01/09 05:26:17;;;;;;;91.88;39.42;;;1.10;99.80;;;;;;5081437;28;20016;-80
2022/01/09 05:28:43;;;;;;;78.80;37.47;;;1.00;99.90;;;;;;5081133;28;20066;-80
2022/01/09 05:31:09;;;;;;;91.55;40.58;;;1.00;99.90;;;;;;5062758;28;20051;-80
2022/01/09 05:33:36;;;;;;;83.68;37.38;;;1.00;99.90;;;;;;5080377;28;20044;-80
2022/01/09 05:36:02;;;;;;;86.05;39.22;;;1.00;99.90;;;;;;5061547;28;20032;-80
2022/01/09 05:38:34;;;;;;;82.85;37.33;;;1.10;99.90;;;;;;5081171;28;20342;-79
2022/01/09 05:40:59;;;;;;;83.88;39.17;;;1.10;99.90;;;;;;5081435;28;20038;-80
2022/01/09 05:43:28;;;;;;;83.13;39.20;;;1.10;99.90;;;;;;5081437;28;20024;-82
2022/01/09 05:45:56;;;;;;;81.80;38.28;;;1.10;99.90;;;;;;5080951;28;20073;-80
2022/01/09 05:48:24;;;;;;;87.03;38.22;;;1.50;99.90;;;;;;5080604;28;20047;-80
2022/01/09 05:50:50;;;;;;;81.22;38.15;;;1.10;99.90;;;;;;5062581;28;20077;-80
2022/01/09 05:53:28;;;;;;;81.85;36.42;;;1.10;99.90;;;;;;5062110;28;20452;-80
2022/01/09 05:55:56;;;;;;;76.32;36.28;;;1.00;99.90;;;;;;5062323;28;20060;-80
2022/01/09 05:58:24;;;;;;;85.25;40.22;;;1.00;99.90;;;;;;5079777;28;20067;-81
2022/01/09 06:00:50;;;;;;;80.00;37.05;;;1.00;99.90;;;;;;5080508;28;20273;-80
2022/01/09 06:03:18;;;;;;;88.28;39.08;;;1.00;99.90;;;;;;5080260;28;20324;-80
2022/01/09 06:05:47;;;;;;;92.15;40.30;;;1.00;99.90;;;;;;5082025;28;20654;-80
2022/01/09 06:08:13;;;;;;;81.57;38.78;;;1.00;99.90;;;;;;5090009;28;20027;-80
2022/01/09 06:10:44;;;;;;;78.63;39.17;;;1.00;99.90;;;;;;5090267;28;20240;-80
2022/01/09 06:13:09;;;;;;;78.45;38.67;;;1.00;99.90;;;;;;5090756;28;20343;-81
2022/01/09 06:15:35;;;;;;;82.47;39.22;;;1.00;99.90;;;;;;5072594;28;20087;-81
2022/01/09 06:18:01;;;;;;;79.25;36.55;;;1.00;99.90;;;;;;5087219;28;20028;-80
2022/01/09 06:20:27;;;;;;;82.60;36.55;;;1.00;99.90;;;;;;5088564;28;20645;-80
2022/01/09 06:22:52;;;;;;;79.20;37.17;;;1.00;99.90;;;;;;5085444;28;20020;-80
2022/01/09 06:25:18;;;;;;;74.70;36.63;;;1.00;99.90;;;;;;5063924;28;20024;-80
2022/01/09 06:27:46;;;;;;;69.65;32.17;;;1.00;99.90;;;;;;5063250;28;20552;-80
2022/01/09 06:30:13;;;;;;;67.03;29.80;;;2.40;99.90;;;;;;5081363;28;20035;-81
2022/01/09 06:32:38;;;;;;;66.03;30.67;;;1.00;99.90;;;;;;5080506;28;20429;-80
2022/01/09 06:35:08;;;;;;;74.15;31.70;;;1.10;99.90;;;;;;5080196;28;20461;-80
2022/01/09 06:37:34;;;;;;;61.38;30.52;;;1.10;99.90;;;;;;5061804;28;20383;-80
2022/01/09 06:40:00;;;;;;;64.30;30.52;;;2.60;99.90;;;;;;5079415;28;20024;-80
2022/01/09 06:42:26;;;;;;;57.38;28.13;;;1.10;99.80;;;;;;5061914;28;20016;-79
2022/01/09 06:44:51;;;;;;;67.13;29.95;;;1.10;99.70;;;;;;5061347;28;20017;-80
2022/01/09 06:47:19;;;;;;;71.13;30.85;;;1.10;99.30;;;;;;5060862;28;20474;-80
2022/01/09 06:49:45;;;;;;;73.05;33.03;;;1.20;99.50;;;;;;5079376;28;20482;-79
2022/01/09 06:52:11;;;;;;;78.53;34.70;;;1.20;99.70;;;;;;5079804;28;20059;-80
2022/01/09 06:54:40;;;;;;;86.72;37.83;;;1.10;99.70;;;;;;5079379;28;20430;-80
2022/01/09 06:57:08;;;;;;;66.95;30.10;;;1.30;99.90;;;;;;5079834;28;20040;-80
2022/01/09 06:59:34;;;;;;;59.45;28.05;;;1.30;99.40;;;;;;5061528;28;20028;-80
2022/01/09 07:02:00;;;;;;;62.22;29.83;;;1.30;99.30;;;;;;5079241;28;20347;-80
2022/01/09 07:04:26;;;;;;;60.17;28.98;;;1.30;98.60;;;;;;5079580;28;20194;-79
2022/01/09 07:06:51;;;;;;;53.85;25.92;;;1.30;98.80;;;;;;5079167;28;20051;-80
2022/01/09 07:09:22;;;;;;;53.80;25.40;;;1.40;98.90;;;;;;5078875;28;20032;-79
2022/01/09 07:11:48;;;;;;;53.45;25.60;;;1.30;98.90;;;;;;5059724;28;20050;-80
2022/01/09 07:14:17;;;;;;;52.78;24.10;;;1.40;98.70;;;;;;5079073;28;20036;-80
2022/01/09 07:16:43;;;;;;;56.88;26.63;;;1.40;98.80;;;;;;5060415;28;20063;-80
2022/01/09 07:19:09;;;;;;;52.65;28.40;;;1.40;98.50;;;;;;5079263;28;20060;-79
2022/01/09 07:21:37;;;;;;;49.65;24.88;;;1.40;98.40;;;;;;5079258;28;20467;-79
2022/01/09 07:24:03;;;;;;;48.53;21.52;;;1.30;98.80;;;;;;5060464;28;20571;-80
2022/01/09 07:26:30;;;;;;;50.28;23.88;;;1.50;98.30;;;;;;5078809;28;20016;-79
2022/01/09 07:28:55;;;;;;;53.47;24.40;;;1.50;98.10;;;;;;5059953;28;20362;-80
2022/01/09 07:31:21;;;;;;;51.65;24.50;;;1.60;98.50;;;;;;5078788;28;20024;-79
2022/01/09 07:33:47;;;;;;;47.22;22.98;;;1.60;98.40;;;;;;5060394;28;20491;-79
2022/01/09 07:36:14;;;;;;;50.15;22.17;;;1.70;98.00;;;;;;5078143;28;20044;-79
2022/01/09 07:38:43;;;;;;;52.05;23.38;;;1.60;97.90;;;;;;5078474;28;20142;-79
2022/01/09 07:41:12;;;;;;;49.10;24.50;;;1.60;97.90;;;;;;5078228;28;20038;-79
2022/01/09 07:43:38;;;;;;;48.53;23.35;;;1.70;97.70;;;;;;5060279;28;20024;-79
2022/01/09 07:46:04;;;;;;;52.20;23.55;;;1.70;97.80;;;;;;5078512;28;20020;-80
2022/01/09 07:48:30;;;;;;;47.20;22.85;;;1.80;97.70;;;;;;5043806;28;20024;-81
2022/01/09 07:50:56;;;;;;;48.20;23.48;;;1.90;97.40;;;;;;5060084;28;20526;-79
2022/01/09 07:53:23;;;;;;;61.13;26.80;;;1.90;97.10;;;;;;5060407;28;20058;-79
2022/01/09 07:55:52;;;;;;;60.33;27.95;;;2.00;96.90;;;;;;5078255;28;20498;-79
2022/01/09 07:58:19;;;;;;;55.28;25.40;;;2.00;96.70;;;;;;5078077;28;20051;-79
2022/01/09 08:00:45;;;;;;;56.13;24.70;;;2.00;96.60;;;;;;5078477;28;20020;-79
2022/01/09 08:03:11;;;;;;;47.08;22.23;;;2.10;97.00;;;;;;5078517;28;20028;-79
2022/01/09 08:05:37;;;;;;;48.58;23.58;;;2.10;96.90;;;;;;5078432;28;20081;-79
2022/01/09 08:08:03;;;;;;;52.72;25.88;;;2.10;96.70;;;;;;5078558;28;20321;-79
2022/01/09 08:10:29;;;;;;;47.10;22.67;;;2.10;96.80;;;;;;5060500;28;20315;-79
2022/01/09 08:12:55;;;;;;;47.13;22.13;;;2.10;96.60;;;;;;5078439;28;20055;-79
2022/01/09 08:15:21;;;;;;;45.05;22.15;;;2.10;96.60;;;;;;5059267;28;20036;-79
2022/01/09 08:17:49;;;;;;;51.10;24.33;;;4.40;97.10;;;;;;5078712;28;20103;-79
2022/01/09 08:20:16;;;;;;;47.45;23.67;;;2.20;96.60;;;;;;5078814;28;20020;-79
2022/01/09 08:22:43;;;;;;;57.05;27.90;;;2.30;96.60;;;;;;5078475;28;20074;-79
2022/01/09 08:25:14;;;;;;;87.60;37.13;;;2.30;96.60;;;;;;5060472;28;20115;-81
2022/01/09 08:27:40;;;;;;;71.68;31.20;;;2.40;96.60;;;;;;5060061;28;20020;-79
2022/01/09 08:30:07;;;;;;;56.05;25.67;;;2.50;96.70;;;;;;5060365;28;20050;-79
2022/01/09 08:32:34;;;;;;;50.03;24.80;;;2.50;96.10;;;;;;5060250;28;20368;-79
2022/01/09 08:35:00;;;;;;;51.90;26.38;;;2.00;96.10;;;;;;5043783;28;20036;-79
2022/01/09 08:37:26;;;;;;;49.55;24.05;;;2.90;96.30;;;;;;5078372;28;20020;-79
2022/01/09 08:39:52;;;;;;;45.78;23.50;;;2.60;96.10;;;;;;5079595;28;20028;-79
2022/01/09 08:42:18;;;;;;;47.67;23.33;;;2.70;95.60;;;;;;5082236;28;20407;-79
2022/01/09 08:44:43;;;;;;;42.17;20.83;;;2.70;95.20;;;;;;5083037;28;20344;-79
2022/01/09 08:47:10;;;;;;;45.92;22.65;;;2.70;95.50;;;;;;5083116;28;20532;-79
2022/01/09 08:49:36;;;;;;;45.70;22.63;;;2.60;95.50;;;;;;5083334;28;20077;-79
2022/01/09 08:52:02;;;;;;;44.75;21.73;;;2.60;95.60;;;;;;5083786;28;20024;-79
2022/01/09 08:54:30;;;;;;;43.38;22.90;;;2.60;95.60;;;;;;5063759;28;20287;-79
2022/01/09 08:56:55;;;;;;;46.88;23.85;;;2.70;95.70;;;;;;5086682;28;20256;-79
2022/01/09 08:59:21;;;;;;;44.50;23.30;;;3.90;96.30;;;;;;5070924;28;20482;-79
2022/01/09 09:01:48;;;;;;;44.25;21.52;;;2.80;96.00;;;;;;5090615;28;20016;-80
2022/01/09 09:04:14;;;;;;;44.92;22.23;;;1.10;94.80;;;;;;5088538;28;20073;-79
2022/01/09 09:06:40;;;;;;;39.90;21.25;;;2.90;95.20;;;;;;5082646;28;20020;-79
2022/01/09 09:09:07;;;;;;;41.95;20.85;;;3.00;94.80;;;;;;5082675;28;20024;-79
2022/01/09 09:11:34;;;;;;;45.03;21.90;;;3.00;95.10;;;;;;5081916;28;20579;-79
2022/01/09 09:14:00;;;;;;;38.22;21.13;;;3.00;95.20;;;;;;5063505;28;20143;-79
2022/01/09 09:16:26;;;;;;;41.78;21.10;;;3.00;95.00;;;;;;5063385;28;20509;-78
2022/01/09 09:18:53;;;;;;;40.15;20.73;;;3.10;95.30;;;;;;5082233;28;20047;-79
2022/01/09 09:21:22;;;;;;;40.55;21.05;;;3.30;94.50;;;;;;5082143;28;20216;-79
2022/01/09 09:23:48;;;;;;;41.28;20.45;;;3.20;94.70;;;;;;5062939;28;20137;-78
2022/01/09 09:26:16;;;;;;;49.78;24.45;;;3.20;94.50;;;;;;5063412;28;20228;-79
2022/01/09 09:28:42;;;;;;;57.83;26.85;;;3.30;94.70;;;;;;5081933;28;20572;-79
2022/01/09 09:31:08;;;;;;;50.38;24.90;;;3.40;94.30;;;;;;5063362;28;20028;-79
2022/01/09 09:33:34;;;;;;;42.05;21.08;;;3.40;94.50;;;;;;5081856;28;20277;-79
2022/01/09 09:36:02;;;;;;;38.38;19.63;;;3.30;94.30;;;;;;5063703;28;20054;-79
2022/01/09 09:38:32;;;;;;;39.83;20.20;;;3.40;94.20;;;;;;5082032;28;20438;-79
2022/01/09 09:40:59;;;;;;;43.53;21.45;;;3.30;94.10;;;;;;5081798;28;20070;-79
2022/01/09 09:43:26;;;;;;;43.33;22.05;;;3.30;94.50;;;;;;5081336;28;20024;-79
2022/01/09 09:45:52;;;;;;;41.65;21.60;;;3.30;94.30;;;;;;5081808;28;20340;-79
2022/01/09 09:48:19;;;;;;;39.42;21.35;;;3.30;94.30;;;;;;5081422;28;20285;-79
2022/01/09 09:50:45;;;;;;;43.70;22.73;;;3.30;94.60;;;;;;5081581;28;20725;-79
2022/01/09 09:53:11;;;;;;;42.38;22.08;;;3.40;94.50;;;;;;5080929;28;20539;-79
2022/01/09 09:55:37;;;;;;;38.97;19.88;;;3.40;93.80;;;;;;5081410;28;20309;-80
2022/01/09 09:58:03;;;;;;;38.80;20.25;;;3.30;94.10;;;;;;5062651;28;20421;-79
2022/01/09 10:00:29;;;;;;;42.75;22.55;;;3.30;94.30;;;;;;5081648;28;20293;-79
2022/01/09 10:02:57;;;;;;;41.08;20.95;;;3.30;94.00;;;;;;5081073;28;20103;-79
2022/01/09 10:05:27;;;;;;;45.08;22.80;;;3.20;94.20;;;;;;5081325;28;20379;-79
2022/01/09 10:07:54;;;;;;;42.67;22.00;;;3.30;94.30;;;;;;5080954;28;20027;-79
2022/01/09 10:10:29;;;;;;;46.70;24.30;;;3.30;94.40;;;;;;5063013;28;20082;-79
2022/01/09 10:13:09;;;;;;;43.03;22.13;;;3.50;93.90;;;;;;5080700;28;20023;-79
2022/01/09 10:15:49;;;;;;;49.60;25.25;;;3.50;93.40;;;;;;5080989;28;20510;-79
2022/01/09 10:18:42;;;;;;;49.70;23.60;;;3.60;93.50;;;;;;5080131;28;20227;-79
2022/01/09 10:21:18;;;;;;;46.88;23.90;;;5.60;93.10;;;;;;5080179;28;20177;-79
2022/01/09 10:24:12;;;;;;;52.95;26.55;;;7.10;94.50;;;;;;5080680;28;20020;-79
2022/01/09 10:26:47;;;;;;;54.00;26.77;;;3.50;93.80;;;;;;5062457;28;20020;-79
2022/01/09 10:29:13;;;;;;;48.05;25.58;;;3.50;94.00;;;;;;5062330;28;20069;-79
2022/01/09 10:31:43;;;;;;;53.35;27.27;;;3.60;93.90;;;;;;5061852;28;20374;-79
2022/01/09 10:34:12;;;;;;;57.42;29.15;;;3.50;93.90;;;;;;5080201;28;20024;-79
2022/01/09 10:36:51;;;;;;;52.65;26.42;;;3.60;94.00;;;;;;5080444;28;20028;-79
2022/01/09 10:39:21;;;;;;;47.25;25.88;;;3.50;93.50;;;;;;5080122;28;20026;-79
2022/01/09 10:42:03;;;;;;;55.83;29.10;;;3.50;93.50;;;;;;5080118;28;20332;-79
2022/01/09 10:44:31;;;;;;;50.53;25.50;;;3.50;93.60;;;;;;5079963;28;20043;-79
2022/01/09 10:47:03;;;;;;;48.20;24.80;;;3.40;93.30;;;;;;5079875;28;20020;-78
2022/01/09 10:49:39;;;;;;;61.85;29.65;;;3.50;93.40;;;;;;5080008;28;20020;-80
2022/01/09 10:52:21;;;;;;;58.15;28.52;;;5.30;93.80;;;;;;5061522;28;20027;-79
2022/01/09 10:54:50;;;;;;;63.70;30.95;;;3.30;93.70;;;;;;5079820;28;20036;-80
2022/01/09 10:57:19;;;;;;;57.22;27.73;;;3.30;93.80;;;;;;5079480;28;20411;-80
2022/01/09 10:59:46;;;;;;;54.35;28.45;;;3.40;93.90;;;;;;5080290;28;20267;-80
2022/01/09 11:02:12;;;;;;;57.28;27.77;;;3.40;93.70;;;;;;5079893;28;20123;-80
2022/01/09 11:04:43;;;;;;;53.17;27.92;;;4.00;93.50;;;;;;5061028;28;20077;-80
2022/01/09 11:07:09;;;;;;;54.78;29.35;;;3.30;93.20;;;;;;5080247;28;20296;-79
2022/01/09 11:09:38;;;;;;;56.03;30.05;;;3.20;93.30;;;;;;5061504;28;20024;-79
2022/01/09 11:12:10;;;;;;;56.55;27.92;;;3.20;93.60;;;;;;5061465;28;20635;-80
2022/01/09 11:14:41;;;;;;;56.83;29.13;;;3.20;93.60;;;;;;5080054;28;20036;-79
2022/01/09 11:17:09;;;;;;;53.22;27.98;;;3.30;93.90;;;;;;5080241;28;20031;-79
2022/01/09 11:19:35;;;;;;;54.25;28.33;;;3.30;94.00;;;;;;5062347;28;20522;-80
2022/01/09 11:22:05;;;;;;;61.63;32.15;;;3.40;93.90;;;;;;5080341;28;20013;-79
2022/01/09 11:24:56;;;;;;;60.00;30.27;;;3.40;93.80;;;;;;5080254;28;20020;-80
2022/01/09 11:27:46;;;;;;;61.83;31.10;;;3.30;94.00;;;;;;5080173;28;20221;-79
2022/01/09 11:30:42;;;;;;;59.40;29.67;;;3.30;94.10;;;;;;5080810;28;20390;-80
2022/01/09 11:33:20;;;;;;;56.50;29.42;;;3.30;94.60;;;;;;5049177;28;20028;-79
2022/01/09 11:36:33;;;;;;;55.95;28.63;;;3.30;94.30;;;;;;5063421;28;20039;-80
2022/01/09 11:39:15;;;;;;;60.47;30.35;;;3.30;94.20;;;;;;4978130;28;20109;-80
2022/01/09 11:41:43;;;;;;;61.25;31.25;;;3.30;94.30;;;;;;4962793;28;20030;-80
2022/01/09 11:44:11;;;;;;;63.30;31.83;;;4.80;94.60;;;;;;4979279;28;20483;-80
2022/01/09 11:47:05;;;;;;;65.05;34.05;;;3.30;94.50;;;;;;4971630;28;20094;-81
2022/01/09 11:50:01;;;;;;;63.05;32.33;;;3.30;94.70;;;;;;4986249;28;20068;-80
2022/01/09 11:52:29;;;;;;;70.50;34.93;;;3.30;94.60;;;;;;4978842;28;20221;-80
2022/01/09 11:54:59;;;;;;;73.82;37.28;;;3.30;94.50;;;;;;4981548;28;20038;-80
2022/01/09 11:57:40;;;;;;;73.97;35.95;;;3.30;94.70;;;;;;4961487;28;20062;-80
2022/01/09 12:00:26;;;;;;;82.43;38.88;;;3.40;94.80;;;;;;4977765;28;20165;-80
2022/01/09 12:02:52;;;;;;;74.10;36.58;;;3.40;94.50;;;;;;4960257;28;20034;-79
2022/01/09 12:05:18;;;;;;;68.03;34.80;;;3.30;94.40;;;;;;4976496;28;20034;-80
2022/01/09 12:07:48;;;;;;;64.22;33.22;;;3.30;94.80;;;;;;4976426;28;20583;-79
2022/01/09 12:10:35;;;;;;;67.55;33.22;;;3.10;94.90;;;;;;5020717;28;20530;-80
2022/01/09 12:13:05;;;;;;;68.80;33.15;;;4.40;95.40;;;;;;5058564;28;20060;-80
2022/01/09 12:15:43;;;;;;;70.20;34.42;;;3.00;95.20;;;;;;5037555;28;20028;-80
2022/01/09 12:18:52;;;;;;;109.35;46.95;;;2.80;95.40;;;;;;5063138;28;20047;-81
2022/01/09 12:21:39;;;;;;;83.25;40.10;;;3.40;95.90;;;;;;4964318;28;20117;-79
2022/01/09 12:24:42;;;;;;;72.55;36.53;;;2.80;95.90;;;;;;4980386;28;20022;-80
2022/01/09 12:27:35;;;;;;;81.30;40.38;;;2.90;95.90;;;;;;4980440;28;20029;-80
2022/01/09 12:30:05;;;;;;;75.55;38.10;;;2.90;96.10;;;;;;4980739;28;20121;-80
2022/01/09 12:32:39;;;;;;;77.82;38.00;;;3.00;95.80;;;;;;4980867;28;20027;-80
2022/01/09 12:35:15;;;;;;;72.95;36.42;;;2.90;96.10;;;;;;4964504;28;20444;-80
2022/01/09 12:38:00;;;;;;;69.78;35.00;;;3.00;96.30;;;;;;4980995;28;20221;-80
2022/01/09 12:40:28;;;;;;;65.85;34.25;;;3.10;95.90;;;;;;4980814;28;20544;-80
2022/01/09 12:42:57;;;;;;;68.68;35.10;;;3.10;95.80;;;;;;4964028;28;20061;-80
2022/01/09 12:45:26;;;;;;;66.68;33.22;;;3.10;96.30;;;;;;4980197;28;20097;-79